Time;durP1;ratioP1;P1;durP2;ratioP2;P2;SDS_P1;SDS_P2;PMS_P1;PMS_P2;Temp;Humidity;BMP_temperature;BMP_pressure;BME280_temperature;BME280_humidity;BME280_pressure;Samples;Min_cycle;Max_cycle;Signal;HPM_P1;HPM_P2
2022/08/31 00:04:06;;;;;;;4.27;2.33;;;16.60;99.90;;;;;;4948141;28;20502;-83
2022/08/31 00:06:37;;;;;;;2.30;2.10;;;16.40;99.90;;;;;;4955475;28;20409;-84
2022/08/31 00:09:06;;;;;;;4.17;2.27;;;16.40;99.90;;;;;;4942753;28;20205;-83
2022/08/31 00:11:35;;;;;;;2.67;2.10;;;16.30;99.90;;;;;;4954782;28;20644;-83
2022/08/31 00:14:08;;;;;;;2.30;2.10;;;16.40;99.90;;;;;;4963933;28;20311;-85
2022/08/31 00:16:42;;;;;;;2.87;2.50;;;16.30;99.90;;;;;;4967776;28;20228;-84
2022/08/31 00:19:12;;;;;;;3.87;2.00;;;16.30;99.90;;;;;;4965202;28;20209;-84
2022/08/31 00:21:42;;;;;;;2.27;2.07;;;16.30;99.90;;;;;;4972191;28;21031;-86
2022/08/31 00:24:13;;;;;;;2.33;2.17;;;16.20;99.90;;;;;;4952543;28;20197;-84
2022/08/31 00:26:42;;;;;;;2.50;2.13;;;16.20;99.90;;;;;;4965619;28;20646;-84
2022/08/31 00:29:11;;;;;;;3.20;2.30;;;16.10;99.90;;;;;;4963141;28;20240;-85
2022/08/31 00:31:40;;;;;;;3.67;2.27;;;16.10;99.90;;;;;;4944765;28;20320;-84
2022/08/31 00:34:09;;;;;;;4.23;2.27;;;16.00;99.90;;;;;;4945008;28;20225;-84
2022/08/31 00:36:38;;;;;;;4.13;2.20;;;16.00;99.90;;;;;;4933861;28;20494;-83
2022/08/31 00:39:09;;;;;;;3.17;2.20;;;16.00;99.90;;;;;;4935201;28;20212;-86
2022/08/31 00:41:38;;;;;;;3.40;2.73;;;15.90;99.90;;;;;;4943138;28;20202;-83
2022/08/31 00:44:09;;;;;;;5.90;2.67;;;15.90;99.90;;;;;;4946233;28;20411;-85
2022/08/31 00:46:42;;;;;;;2.63;2.20;;;15.90;99.90;;;;;;4957571;28;20212;-84
2022/08/31 00:49:14;;;;;;;4.43;2.20;;;15.90;99.90;;;;;;4941755;28;20208;-83
2022/08/31 00:51:51;;;;;;;3.37;2.43;;;15.80;99.90;;;;;;4941338;28;20205;-84
2022/08/31 00:54:27;;;;;;;2.63;2.43;;;15.80;99.90;;;;;;4940296;28;20224;-85
2022/08/31 00:56:56;;;;;;;3.50;2.47;;;15.90;99.90;;;;;;4935016;28;20236;-84
2022/08/31 00:59:25;;;;;;;4.70;2.70;;;15.90;99.90;;;;;;4939528;28;20327;-84
2022/08/31 01:01:54;;;;;;;4.83;2.20;;;15.90;99.90;;;;;;4933165;28;20845;-85
2022/08/31 01:04:23;;;;;;;3.80;2.40;;;15.90;99.90;;;;;;4941597;28;20234;-84
2022/08/31 01:06:52;;;;;;;4.47;2.27;;;15.80;99.90;;;;;;4935938;28;20835;-84
2022/08/31 01:09:23;;;;;;;3.30;2.43;;;15.80;99.90;;;;;;4939010;28;20692;-83
2022/08/31 01:11:52;;;;;;;3.37;2.23;;;15.70;99.90;;;;;;4938110;28;20206;-84
2022/08/31 01:14:21;;;;;;;2.80;2.10;;;15.70;99.90;;;;;;4948616;28;20205;-86
2022/08/31 01:16:53;;;;;;;3.47;1.93;;;15.70;99.90;;;;;;4956414;28;20304;-84
2022/08/31 01:19:29;;;;;;;3.43;2.17;;;15.80;99.90;;;;;;4946255;28;20220;-83
2022/08/31 01:22:07;;;;;;;5.17;2.33;;;15.80;99.90;;;;;;4947703;28;20217;-85
2022/08/31 01:24:40;;;;;;;3.30;2.33;;;15.70;99.90;;;;;;4961861;28;20198;-84
2022/08/31 01:27:09;;;;;;;3.03;2.40;;;15.60;99.90;;;;;;4937102;28;20373;-84
2022/08/31 01:29:38;;;;;;;3.67;2.10;;;15.60;99.90;;;;;;4940704;28;20197;-86
2022/08/31 01:32:07;;;;;;;2.80;2.60;;;15.60;99.90;;;;;;4936860;28;20597;-84
2022/08/31 01:34:35;;;;;;;2.37;2.17;;;15.70;99.90;;;;;;4937861;28;20236;-84
2022/08/31 01:37:04;;;;;;;4.43;2.47;;;15.60;99.90;;;;;;4935469;28;20256;-84
2022/08/31 01:39:33;;;;;;;3.03;2.40;;;15.60;99.90;;;;;;4937778;28;20466;-85
2022/08/31 01:42:03;;;;;;;3.83;2.40;;;15.60;99.90;;;;;;4937085;28;20670;-85
2022/08/31 01:44:32;;;;;;;5.20;2.47;;;15.50;99.90;;;;;;4935794;28;20212;-86
2022/08/31 01:47:00;;;;;;;3.77;2.33;;;15.60;99.90;;;;;;4935276;28;20240;-85
2022/08/31 01:49:29;;;;;;;3.93;2.80;;;15.60;99.90;;;;;;4933847;28;20275;-85
2022/08/31 01:51:58;;;;;;;2.40;2.20;;;15.40;99.90;;;;;;4932951;28;20220;-84
2022/08/31 01:54:26;;;;;;;3.33;2.50;;;15.50;99.90;;;;;;4941559;28;21015;-82
2022/08/31 01:56:55;;;;;;;4.77;2.47;;;15.50;99.90;;;;;;4936687;28;20687;-84
2022/08/31 01:59:26;;;;;;;3.37;2.70;;;15.60;99.90;;;;;;4936484;28;20589;-83
2022/08/31 02:01:56;;;;;;;4.93;2.77;;;15.70;99.90;;;;;;4939685;28;20775;-84
2022/08/31 02:04:27;;;;;;;4.27;2.43;;;15.60;99.90;;;;;;4935154;28;20241;-83
2022/08/31 02:06:58;;;;;;;4.53;2.23;;;15.70;99.90;;;;;;4940360;28;20205;-83
2022/08/31 02:09:28;;;;;;;2.83;2.30;;;15.60;99.90;;;;;;4936289;28;20251;-86
2022/08/31 02:11:57;;;;;;;5.23;2.60;;;15.60;99.90;;;;;;4943745;28;20359;-85
2022/08/31 02:14:26;;;;;;;3.60;2.43;;;15.60;99.90;;;;;;4947849;28;20213;-84
2022/08/31 02:16:56;;;;;;;3.07;2.40;;;15.70;99.90;;;;;;4964485;28;20229;-84
2022/08/31 02:19:24;;;;;;;3.07;2.30;;;15.70;99.90;;;;;;4940178;28;20709;-84
2022/08/31 02:21:52;;;;;;;2.37;2.20;;;15.70;99.90;;;;;;4946444;28;20272;-84
2022/08/31 02:24:21;;;;;;;4.20;2.40;;;15.60;99.90;;;;;;4952212;28;20205;-84
2022/08/31 02:26:49;;;;;;;4.17;2.50;;;15.60;99.90;;;;;;4936556;28;20644;-84
2022/08/31 02:29:21;;;;;;;4.03;2.37;;;15.60;99.90;;;;;;4942285;28;20206;-85
2022/08/31 02:31:54;;;;;;;3.50;2.10;;;15.50;99.90;;;;;;4941331;28;20203;-84
2022/08/31 02:34:22;;;;;;;3.33;2.07;;;15.50;99.90;;;;;;4940341;28;20601;-84
2022/08/31 02:36:51;;;;;;;5.43;2.40;;;15.50;99.90;;;;;;4941431;28;20623;-85
2022/08/31 02:39:19;;;;;;;2.73;2.10;;;15.50;99.90;;;;;;4943889;28;20213;-84
2022/08/31 02:41:48;;;;;;;2.70;1.90;;;15.50;99.90;;;;;;4967867;28;20205;-83
2022/08/31 02:44:16;;;;;;;5.40;2.50;;;15.50;99.90;;;;;;4962047;28;20189;-83
2022/08/31 02:46:45;;;;;;;3.30;2.43;;;15.40;99.90;;;;;;4963055;28;20203;-84
2022/08/31 02:49:15;;;;;;;2.43;2.00;;;15.40;99.90;;;;;;4963449;28;20185;-86
2022/08/31 02:51:46;;;;;;;2.27;2.07;;;15.40;99.90;;;;;;4950693;28;20589;-85
2022/08/31 02:54:17;;;;;;;3.00;2.70;;;15.30;99.90;;;;;;4943225;28;20823;-84
2022/08/31 02:56:45;;;;;;;4.10;2.40;;;15.40;99.90;;;;;;4932372;28;20495;-84
2022/08/31 02:59:13;;;;;;;3.90;2.40;;;15.30;99.90;;;;;;4939295;28;20332;-85
2022/08/31 03:01:42;;;;;;;6.20;2.43;;;15.40;99.90;;;;;;4938733;28;20201;-84
2022/08/31 03:04:11;;;;;;;2.63;2.17;;;15.40;99.90;;;;;;4943482;28;20254;-84
2022/08/31 03:06:43;;;;;;;4.17;2.67;;;15.40;99.90;;;;;;4942003;28;20572;-83
2022/08/31 03:09:12;;;;;;;2.43;2.17;;;15.40;99.90;;;;;;4937257;28;20604;-85
2022/08/31 03:11:40;;;;;;;7.00;2.53;;;15.60;99.90;;;;;;4952068;28;20229;-85
2022/08/31 03:14:09;;;;;;;3.73;2.60;;;15.50;99.90;;;;;;4969447;28;20213;-85
2022/08/31 03:16:39;;;;;;;3.40;2.30;;;15.60;99.90;;;;;;4968153;28;20235;-83
2022/08/31 03:19:08;;;;;;;3.40;2.63;;;15.60;99.90;;;;;;4963433;28;20209;-84
2022/08/31 03:21:37;;;;;;;3.03;2.20;;;15.60;99.90;;;;;;4951601;28;20562;-83
2022/08/31 03:24:08;;;;;;;2.37;2.17;;;15.60;99.90;;;;;;4970288;28;20209;-86
2022/08/31 03:26:36;;;;;;;2.80;2.00;;;15.60;99.90;;;;;;4952228;28;20672;-85
2022/08/31 03:29:05;;;;;;;3.10;2.10;;;15.60;99.90;;;;;;4938465;28;20485;-85
2022/08/31 03:31:33;;;;;;;2.70;2.20;;;15.60;99.90;;;;;;4964423;28;20201;-86
2022/08/31 03:34:02;;;;;;;3.30;2.37;;;15.60;99.40;;;;;;4952734;28;20741;-85
2022/08/31 03:36:30;;;;;;;5.17;2.10;;;15.70;99.20;;;;;;4946442;28;20702;-84
2022/08/31 03:38:59;;;;;;;4.10;2.30;;;15.60;99.20;;;;;;4942046;28;20236;-84
2022/08/31 03:41:29;;;;;;;2.73;2.00;;;15.60;99.40;;;;;;4941097;28;20213;-85
2022/08/31 03:44:00;;;;;;;2.60;2.20;;;15.70;99.40;;;;;;4939019;28;20283;-84
2022/08/31 03:46:31;;;;;;;2.77;1.93;;;15.70;98.80;;;;;;4938067;28;20208;-85
2022/08/31 03:49:01;;;;;;;3.33;2.10;;;15.70;98.60;;;;;;4943524;28;20301;-85
2022/08/31 03:51:30;;;;;;;2.30;2.10;;;15.70;98.30;;;;;;4945613;28;20341;-83
2022/08/31 03:53:58;;;;;;;2.20;2.10;;;15.70;98.40;;;;;;4942235;28;20213;-84
2022/08/31 03:56:28;;;;;;;3.40;1.93;;;15.70;98.50;;;;;;4940288;28;20232;-84
2022/08/31 03:58:56;;;;;;;3.40;2.00;;;15.80;98.30;;;;;;4941469;28;20300;-84
2022/08/31 04:01:25;;;;;;;2.07;1.80;;;15.80;97.70;;;;;;4944792;28;20208;-84
2022/08/31 04:03:54;;;;;;;2.47;2.03;;;15.90;97.60;;;;;;4938260;28;20707;-84
2022/08/31 04:06:22;;;;;;;3.50;2.13;;;15.90;97.50;;;;;;4941501;28;20553;-83
2022/08/31 04:08:51;;;;;;;3.03;2.00;;;16.00;96.90;;;;;;4939433;28;20234;-85
2022/08/31 04:11:25;;;;;;;5.50;2.27;;;16.00;96.20;;;;;;4939969;28;20213;-86
2022/08/31 04:14:13;;;;;;;3.57;2.07;;;16.10;95.90;;;;;;4950735;28;20213;-83
2022/08/31 04:16:43;;;;;;;3.10;2.03;;;16.10;96.10;;;;;;4938805;28;20229;-83
2022/08/31 04:19:14;;;;;;;3.00;1.80;;;16.20;95.60;;;;;;4934671;28;20582;-83
2022/08/31 04:21:44;;;;;;;2.60;2.00;;;16.20;95.50;;;;;;4937175;28;20232;-85
2022/08/31 04:24:13;;;;;;;2.43;2.03;;;16.20;95.20;;;;;;4940838;28;20397;-82
2022/08/31 04:26:42;;;;;;;2.70;2.00;;;16.30;95.10;;;;;;4938972;28;20283;-82
2022/08/31 04:29:13;;;;;;;2.57;2.00;;;16.30;94.80;;;;;;4935727;28;20292;-83
2022/08/31 04:31:41;;;;;;;3.87;2.37;;;16.40;94.20;;;;;;4940016;28;20293;-82
2022/08/31 04:34:10;;;;;;;3.70;2.10;;;16.40;94.50;;;;;;4933909;28;20201;-82
2022/08/31 04:36:38;;;;;;;2.07;1.63;;;16.40;93.80;;;;;;4935547;28;20327;-80
2022/08/31 04:39:08;;;;;;;3.47;2.00;;;16.40;93.70;;;;;;4938237;28;20212;-83
2022/08/31 04:41:38;;;;;;;3.03;2.10;;;16.30;93.90;;;;;;4955070;28;20330;-83
2022/08/31 04:44:10;;;;;;;3.90;1.90;;;16.40;93.90;;;;;;4939853;28;20683;-84
2022/08/31 04:46:43;;;;;;;2.03;1.60;;;16.30;93.80;;;;;;4934599;28;20208;-80
2022/08/31 04:49:14;;;;;;;2.73;1.70;;;16.30;93.60;;;;;;4933874;28;20263;-82
2022/08/31 04:51:44;;;;;;;2.43;1.70;;;16.40;93.20;;;;;;4933152;28;20205;-84
2022/08/31 04:54:14;;;;;;;4.97;2.20;;;16.40;93.20;;;;;;4930015;28;20224;-81
2022/08/31 04:56:44;;;;;;;4.77;1.97;;;16.40;93.10;;;;;;4942719;28;20297;-82
2022/08/31 04:59:15;;;;;;;4.53;1.90;;;16.40;93.30;;;;;;4940806;28;20201;-83
2022/08/31 05:01:46;;;;;;;3.63;1.60;;;16.40;93.30;;;;;;4941013;28;20704;-83
2022/08/31 05:04:15;;;;;;;3.07;1.70;;;16.40;93.30;;;;;;4937665;28;20236;-81
2022/08/31 05:06:46;;;;;;;5.00;1.90;;;16.40;92.70;;;;;;4933495;28;20224;-83
2022/08/31 05:09:17;;;;;;;3.17;2.10;;;16.40;92.40;;;;;;4943232;28;20367;-81
2022/08/31 05:11:46;;;;;;;4.23;2.10;;;16.50;92.40;;;;;;4937505;28;20288;-83
2022/08/31 05:14:15;;;;;;;3.57;1.90;;;16.50;92.10;;;;;;4952630;28;20595;-80
2022/08/31 05:16:45;;;;;;;2.37;1.90;;;16.60;92.20;;;;;;4939954;28;20610;-80
2022/08/31 05:19:13;;;;;;;4.33;2.03;;;16.50;92.40;;;;;;4933722;28;20248;-83
2022/08/31 05:21:43;;;;;;;4.33;2.37;;;16.50;92.90;;;;;;4949227;28;20547;-80
2022/08/31 05:24:15;;;;;;;4.73;1.70;;;16.40;93.10;;;;;;4959025;28;20291;-83
2022/08/31 05:26:47;;;;;;;2.33;1.80;;;16.40;92.90;;;;;;4948891;28;20209;-82
2022/08/31 05:29:17;;;;;;;2.93;2.07;;;16.50;93.20;;;;;;4942464;28;20208;-81
2022/08/31 05:31:48;;;;;;;2.10;1.50;;;16.50;92.90;;;;;;4944616;28;20230;-81
2022/08/31 05:34:21;;;;;;;1.60;1.50;;;16.60;92.00;;;;;;4947482;28;20703;-81
2022/08/31 05:36:52;;;;;;;3.83;1.70;;;16.60;90.80;;;;;;4946612;28;20244;-82
2022/08/31 05:39:21;;;;;;;3.57;1.53;;;16.60;91.30;;;;;;4948054;28;20243;-85
2022/08/31 05:41:50;;;;;;;2.90;1.70;;;16.70;90.90;;;;;;4953471;28;20239;-81
2022/08/31 05:44:19;;;;;;;4.30;1.90;;;16.60;90.60;;;;;;4946945;28;20453;-80
2022/08/31 05:46:52;;;;;;;3.10;1.70;;;16.60;90.80;;;;;;4945806;28;20420;-83
2022/08/31 05:49:31;;;;;;;2.30;1.60;;;16.60;91.10;;;;;;4944288;28;20231;-83
2022/08/31 05:52:00;;;;;;;2.33;1.70;;;16.70;90.80;;;;;;4945609;28;20468;-82
2022/08/31 05:54:28;;;;;;;2.53;1.70;;;16.60;90.60;;;;;;4948389;28;20272;-81
2022/08/31 05:56:57;;;;;;;2.07;1.60;;;16.50;91.00;;;;;;4949062;28;20457;-83
2022/08/31 05:59:29;;;;;;;2.67;1.63;;;16.60;91.10;;;;;;4938257;28;20285;-82
2022/08/31 06:02:00;;;;;;;1.70;1.60;;;16.60;90.90;;;;;;4926133;28;20221;-80
2022/08/31 06:04:29;;;;;;;4.67;1.70;;;16.70;90.70;;;;;;4912330;28;20560;-79
2022/08/31 06:06:57;;;;;;;2.23;1.50;;;16.70;90.90;;;;;;4921309;28;20773;-82
2022/08/31 06:09:26;;;;;;;2.67;1.70;;;16.80;91.00;;;;;;4918655;28;20576;-83
2022/08/31 06:11:56;;;;;;;2.13;1.60;;;16.80;90.60;;;;;;4916262;28;21118;-82
2022/08/31 06:14:24;;;;;;;4.00;1.50;;;16.80;90.30;;;;;;4911646;28;20630;-81
2022/08/31 06:16:55;;;;;;;2.00;1.50;;;16.70;90.40;;;;;;4916547;28;20216;-83
2022/08/31 06:19:25;;;;;;;5.07;2.10;;;16.70;90.50;;;;;;4907476;28;20373;-81
2022/08/31 06:21:56;;;;;;;4.30;2.00;;;16.60;90.30;;;;;;4911693;28;20745;-85
2022/08/31 06:24:24;;;;;;;3.83;1.73;;;16.60;90.50;;;;;;4911575;28;20229;-83
2022/08/31 06:26:56;;;;;;;2.37;1.80;;;16.70;90.50;;;;;;4900063;28;20293;-82
2022/08/31 06:29:30;;;;;;;1.80;1.43;;;16.90;90.30;;;;;;4911980;28;20482;-81
2022/08/31 06:32:03;;;;;;;1.60;1.37;;;17.00;89.70;;;;;;4910378;28;20469;-82
2022/08/31 06:34:33;;;;;;;5.03;1.90;;;17.00;89.70;;;;;;4913196;28;20205;-83
2022/08/31 06:37:02;;;;;;;3.90;1.70;;;17.00;90.20;;;;;;4913771;28;20206;-82
2022/08/31 06:39:31;;;;;;;3.83;2.23;;;17.10;89.80;;;;;;4882464;28;21132;-81
2022/08/31 06:42:00;;;;;;;3.57;1.50;;;17.10;89.90;;;;;;4906415;28;20213;-83
2022/08/31 06:44:29;;;;;;;4.13;1.57;;;17.30;89.60;;;;;;4910119;28;20205;-84
2022/08/31 06:46:57;;;;;;;3.53;1.50;;;17.50;88.90;;;;;;4905083;28;20416;-81
2022/08/31 06:49:26;;;;;;;1.67;1.40;;;17.70;88.50;;;;;;4897414;28;20607;-84
2022/08/31 06:51:59;;;;;;;2.60;1.40;;;17.80;87.60;;;;;;4901984;28;20209;-84
2022/08/31 06:54:28;;;;;;;3.03;1.80;;;17.80;87.10;;;;;;4899574;28;20197;-81
2022/08/31 06:56:58;;;;;;;1.23;1.10;;;17.80;86.90;;;;;;4893870;28;21738;-84
2022/08/31 06:59:27;;;;;;;1.60;1.50;;;17.90;86.40;;;;;;4895375;28;20241;-82
2022/08/31 07:01:58;;;;;;;1.50;1.40;;;18.10;85.80;;;;;;4898858;28;20217;-84
2022/08/31 07:04:27;;;;;;;2.70;1.10;;;18.10;85.60;;;;;;4900770;28;20575;-82
2022/08/31 07:06:57;;;;;;;2.07;1.13;;;18.00;85.30;;;;;;4900341;28;20207;-83
2022/08/31 07:09:26;;;;;;;2.10;1.43;;;18.00;85.60;;;;;;4922044;28;20429;-82
2022/08/31 07:11:54;;;;;;;3.10;1.20;;;18.00;85.60;;;;;;4912693;28;20865;-82
2022/08/31 07:14:26;;;;;;;2.27;1.20;;;18.10;84.90;;;;;;4898838;28;20205;-81
2022/08/31 07:16:56;;;;;;;3.50;1.30;;;18.00;85.60;;;;;;4910005;28;20941;-81
2022/08/31 07:19:26;;;;;;;2.97;1.10;;;18.00;85.30;;;;;;4895637;28;20233;-81
2022/08/31 07:21:58;;;;;;;3.57;1.50;;;18.10;85.20;;;;;;4904972;28;20303;-82
2022/08/31 07:24:29;;;;;;;3.53;1.53;;;18.20;85.30;;;;;;4925939;28;20283;-81
2022/08/31 07:27:01;;;;;;;1.90;1.07;;;18.30;84.70;;;;;;4905958;28;20210;-82
2022/08/31 07:29:36;;;;;;;1.37;1.00;;;18.40;84.70;;;;;;4897683;28;20293;-80
2022/08/31 07:32:05;;;;;;;4.00;1.20;;;18.40;84.00;;;;;;4897234;28;20426;-80
2022/08/31 07:34:34;;;;;;;2.00;1.03;;;18.50;83.70;;;;;;4901638;28;20269;-81
2022/08/31 07:42:42;;;;;;;2.43;1.10;;;18.50;83.10;;;;;;4881055;28;21046;-80
2022/08/31 07:45:20;;;;;;;1.97;1.00;;;18.40;83.10;;;;;;4898303;28;20288;-80
2022/08/31 07:47:51;;;;;;;2.30;1.30;;;18.40;83.30;;;;;;4859048;28;20217;-82
2022/08/31 07:50:20;;;;;;;2.27;1.00;;;18.50;83.50;;;;;;4898377;28;20265;-82
2022/08/31 07:52:53;;;;;;;1.83;1.20;;;18.70;83.20;;;;;;4876745;28;20857;-82
2022/08/31 07:55:23;;;;;;;1.57;0.93;;;18.90;83.10;;;;;;4894184;28;20346;-81
2022/08/31 07:57:53;;;;;;;2.60;1.40;;;19.10;83.00;;;;;;4865122;28;21491;-80
2022/08/31 08:00:25;;;;;;;2.23;1.00;;;19.10;82.50;;;;;;4892208;28;20329;-82
2022/08/31 08:02:54;;;;;;;1.03;0.93;;;19.10;82.20;;;;;;4872070;28;20678;-82
2022/08/31 08:05:25;;;;;;;1.73;1.20;;;19.10;82.10;;;;;;4899343;28;20753;-82
2022/08/31 08:08:04;;;;;;;3.77;1.17;;;19.10;81.60;;;;;;4887746;28;20340;-80
2022/08/31 08:10:42;;;;;;;1.87;1.00;;;19.00;82.30;;;;;;4868316;28;20399;-83
2022/08/31 08:13:12;;;;;;;0.77;0.77;;;19.00;81.50;;;;;;4888376;28;20797;-81
2022/08/31 08:15:40;;;;;;;1.97;1.17;;;18.90;81.00;;;;;;4892513;28;20209;-81
2022/08/31 08:18:12;;;;;;;3.17;1.00;;;18.80;81.00;;;;;;4901563;28;20318;-82
2022/08/31 08:20:43;;;;;;;1.00;0.90;;;18.80;81.00;;;;;;4922440;28;20209;-81
2022/08/31 08:23:15;;;;;;;1.57;1.10;;;18.80;81.00;;;;;;4904386;28;20577;-82
2022/08/31 08:25:46;;;;;;;2.50;1.10;;;18.90;81.20;;;;;;4897622;28;20212;-80
2022/08/31 08:28:18;;;;;;;2.30;1.10;;;18.80;80.90;;;;;;4900279;28;20494;-81
2022/08/31 08:31:12;;;;;;;1.77;1.10;;;18.80;81.50;;;;;;4891161;28;20202;-82
2022/08/31 08:33:41;;;;;;;2.13;1.00;;;18.80;81.10;;;;;;4900167;28;20225;-82
2022/08/31 08:36:11;;;;;;;2.00;0.90;;;18.80;81.30;;;;;;4900174;28;20209;-81
2022/08/31 08:38:42;;;;;;;1.00;0.87;;;19.00;80.30;;;;;;4897862;28;20226;-80
2022/08/31 08:41:14;;;;;;;2.03;1.00;;;19.10;80.30;;;;;;4887814;28;20500;-79
2022/08/31 08:43:46;;;;;;;1.47;0.90;;;19.00;80.70;;;;;;4893106;28;20495;-80
2022/08/31 08:46:28;;;;;;;1.97;0.93;;;19.00;80.00;;;;;;4884932;29;20233;-79
2022/08/31 08:49:18;;;;;;;1.30;0.90;;;19.20;80.30;;;;;;4884880;28;20206;-79
2022/08/31 08:51:53;;;;;;;2.20;1.00;;;18.90;80.60;;;;;;4884640;28;20601;-80
2022/08/31 08:54:30;;;;;;;2.07;1.00;;;18.80;80.10;;;;;;4878963;28;20214;-81
2022/08/31 08:56:59;;;;;;;1.87;0.90;;;18.90;79.70;;;;;;4875729;28;20288;-82
2022/08/31 08:59:29;;;;;;;4.50;1.00;;;18.90;79.40;;;;;;4885068;28;20483;-80
2022/08/31 09:02:05;;;;;;;2.07;0.80;;;18.90;79.00;;;;;;4885088;28;20207;-82
2022/08/31 09:05:03;;;;;;;1.30;1.10;;;19.10;78.10;;;;;;4886592;28;20321;-79
2022/08/31 09:07:43;;;;;;;0.60;0.60;;;19.10;77.20;;;;;;4824360;29;20518;-80
2022/08/31 09:10:22;;;;;;;0.77;0.77;;;19.20;76.50;;;;;;4826258;29;20224;-84
2022/08/31 09:13:07;;;;;;;1.90;1.00;;;19.20;77.30;;;;;;4823744;29;20212;-81
2022/08/31 09:16:00;;;;;;;1.63;1.00;;;19.10;76.80;;;;;;4819841;29;20786;-79
2022/08/31 09:18:45;;;;;;;2.00;0.63;;;19.10;76.80;;;;;;4841747;29;20326;-80
2022/08/31 09:21:21;;;;;;;1.57;0.77;;;19.20;75.80;;;;;;4834693;29;20493;-81
2022/08/31 09:23:58;;;;;;;0.93;0.70;;;19.20;76.80;;;;;;4850628;29;20340;-80
2022/08/31 09:26:32;;;;;;;1.50;0.90;;;19.20;76.00;;;;;;4837972;29;20440;-81
2022/08/31 09:29:02;;;;;;;4.00;0.97;;;19.30;76.50;;;;;;4830018;29;20299;-82
2022/08/31 09:31:37;;;;;;;1.37;0.80;;;19.50;75.10;;;;;;4820177;29;20862;-83
2022/08/31 09:34:13;;;;;;;1.00;0.97;;;19.50;75.90;;;;;;4826886;29;20982;-82
2022/08/31 09:36:41;;;;;;;1.10;0.80;;;19.30;75.50;;;;;;4819107;29;20216;-82
2022/08/31 09:39:18;;;;;;;1.97;0.80;;;19.20;75.50;;;;;;4823762;29;20243;-83
2022/08/31 09:41:50;;;;;;;3.43;1.10;;;19.30;76.10;;;;;;4830926;29;20868;-81
2022/08/31 09:44:29;;;;;;;1.60;0.70;;;19.20;76.10;;;;;;4857173;28;20414;-80
2022/08/31 09:47:01;;;;;;;2.90;1.00;;;19.20;74.90;;;;;;4888404;28;20653;-80
2022/08/31 09:49:32;;;;;;;2.33;0.93;;;19.20;75.40;;;;;;4886829;28;20732;-81
2022/08/31 09:55:11;;;;;;;2.80;1.03;;;19.30;74.50;;;;;;4889224;28;20353;-79
2022/08/31 09:55:20;;;;;;;0.70;0.70;;;19.30;74.80;;;;;;4898119;28;20927;-81
2022/08/31 09:57:57;;;;;;;0.77;0.77;;;19.40;73.80;;;;;;4895569;28;20228;-82
2022/08/31 10:00:31;;;;;;;3.10;0.93;;;19.40;74.00;;;;;;4888429;28;20255;-82
2022/08/31 10:03:12;;;;;;;0.97;0.90;;;19.40;74.50;;;;;;4890509;28;20401;-81
2022/08/31 10:05:43;;;;;;;0.90;0.90;;;19.30;73.80;;;;;;4896010;28;20236;-83
2022/08/31 10:08:33;;;;;;;2.47;1.10;;;19.40;74.10;;;;;;4895516;28;20623;-81
2022/08/31 10:11:09;;;;;;;3.13;1.00;;;19.40;73.10;;;;;;4895132;28;20317;-83
2022/08/31 10:13:42;;;;;;;2.27;1.10;;;19.60;73.40;;;;;;4898112;28;20351;-80
2022/08/31 10:16:24;;;;;;;2.20;0.90;;;19.70;73.50;;;;;;4894226;29;20293;-82
2022/08/31 10:18:59;;;;;;;1.10;0.70;;;19.60;72.20;;;;;;4895165;28;20686;-80
2022/08/31 10:21:44;;;;;;;2.80;0.93;;;19.60;71.20;;;;;;4901937;28;20233;-82
2022/08/31 10:24:26;;;;;;;2.83;0.80;;;19.70;71.30;;;;;;4907716;28;20214;-80
2022/08/31 10:27:07;;;;;;;3.40;3.10;;;19.90;71.20;;;;;;4903250;28;20337;-82
2022/08/31 10:29:44;;;;;;;11.53;7.73;;;19.90;70.50;;;;;;4897291;28;20317;-83
2022/08/31 10:32:28;;;;;;;2.33;1.00;;;19.90;70.00;;;;;;4890365;28;20221;-82
2022/08/31 10:35:04;;;;;;;8.10;6.30;;;19.90;69.60;;;;;;4902647;28;20206;-80
2022/08/31 10:37:54;;;;;;;1.20;1.00;;;19.90;70.70;;;;;;4902760;28;20209;-84
2022/08/31 10:40:30;;;;;;;1.27;1.00;;;19.90;69.90;;;;;;4900492;28;20429;-83
2022/08/31 10:43:12;;;;;;;0.60;0.60;;;20.30;69.80;;;;;;4899632;28;20456;-80
2022/08/31 10:45:47;;;;;;;0.90;0.90;;;20.60;68.80;;;;;;4899992;28;20308;-83
2022/08/31 10:48:17;;;;;;;2.27;0.80;;;20.60;68.40;;;;;;4897311;28;20400;-83
2022/08/31 10:50:54;;;;;;;1.00;0.80;;;20.70;68.50;;;;;;4902843;28;20687;-84
2022/08/31 10:53:35;;;;;;;2.42;0.70;;;20.80;66.40;;;;;;4897730;28;20209;-84
2022/08/31 10:56:14;;;;;;;1.23;1.10;;;21.00;66.60;;;;;;4895077;28;20213;-80
2022/08/31 10:58:53;;;;;;;1.38;0.90;;;21.10;65.70;;;;;;4896973;28;20200;-82
2022/08/31 11:01:29;;;;;;;1.80;1.02;;;21.20;65.90;;;;;;4898619;28;21064;-80
2022/08/31 11:04:24;;;;;;;1.20;0.95;;;21.20;65.80;;;;;;4904602;28;20206;-83
2022/08/31 11:07:00;;;;;;;1.38;0.85;;;21.20;66.40;;;;;;4903828;29;20390;-82
2022/08/31 11:09:38;;;;;;;1.10;0.85;;;21.30;65.90;;;;;;4894822;28;20232;-83
2022/08/31 11:12:14;;;;;;;0.95;0.60;;;21.50;66.00;;;;;;4878437;28;20311;-82
2022/08/31 11:15:09;;;;;;;1.42;0.85;;;21.50;64.60;;;;;;4889614;28;20210;-86
2022/08/31 11:17:57;;;;;;;1.77;1.00;;;21.30;65.20;;;;;;4900242;29;20217;-86
2022/08/31 11:20:42;;;;;;;1.05;0.80;;;21.20;65.20;;;;;;4899650;28;20874;-83
2022/08/31 11:23:35;;;;;;;0.90;0.90;;;20.70;65.50;;;;;;4910760;28;20217;-85
2022/08/31 11:26:43;;;;;;;2.50;1.60;;;20.50;65.80;;;;;;4910049;28;20203;-83
2022/08/31 11:29:31;;;;;;;2.70;1.13;;;20.40;66.50;;;;;;4896357;28;20205;-82
2022/08/31 11:32:18;;;;;;;1.20;0.80;;;20.40;65.90;;;;;;4889959;28;20217;-85
2022/08/31 11:34:52;;;;;;;0.93;0.70;;;20.40;64.50;;;;;;4910551;28;20218;-82
2022/08/31 11:37:54;;;;;;;1.90;0.90;;;20.50;64.70;;;;;;4914588;28;20489;-83
2022/08/31 11:41:12;;;;;;;0.70;0.70;;;20.60;64.10;;;;;;4909145;28;20224;-81
2022/08/31 11:43:50;;;;;;;1.10;0.80;;;20.80;64.30;;;;;;4904869;28;20706;-83
2022/08/31 11:46:43;;;;;;;0.82;0.73;;;21.00;63.80;;;;;;4899509;28;20278;-85
2022/08/31 11:49:44;;;;;;;0.75;0.75;;;21.00;63.50;;;;;;4922301;28;20460;-83
2022/08/31 11:52:41;;;;;;;0.90;0.90;;;21.10;64.40;;;;;;4918603;28;20457;-82
2022/08/31 11:55:26;;;;;;;1.00;0.82;;;21.40;64.80;;;;;;4916663;28;20474;-82
2022/08/31 11:58:17;;;;;;;0.95;0.85;;;21.60;63.60;;;;;;4915325;28;20381;-84
2022/08/31 12:00:56;;;;;;;2.92;1.05;;;21.80;63.40;;;;;;4912000;28;20226;-83
2022/08/31 12:03:51;;;;;;;3.03;0.73;;;21.80;63.20;;;;;;4915330;28;20210;-84
2022/08/31 12:07:06;;;;;;;1.17;0.88;;;21.80;63.30;;;;;;4913511;28;21002;-86
2022/08/31 12:10:07;;;;;;;1.88;1.00;;;21.70;64.00;;;;;;4912404;28;20205;-82
2022/08/31 12:13:02;;;;;;;0.80;0.80;;;21.70;63.40;;;;;;4912415;28;20894;-86
2022/08/31 12:15:46;;;;;;;2.05;1.10;;;21.40;63.00;;;;;;4912822;28;20222;-85
2022/08/31 12:18:31;;;;;;;1.20;0.90;;;21.10;63.70;;;;;;4917668;28;20309;-86
2022/08/31 12:24:08;;;;;;;0.75;0.75;;;21.00;64.60;;;;;;4919061;28;20277;-82
2022/08/31 12:26:58;;;;;;;1.27;1.10;;;20.70;64.80;;;;;;4917839;29;20316;-82
2022/08/31 12:47:42;;;;;;;3.03;1.00;;;21.40;63.20;;;;;;4662834;29;20650;-85
2022/08/31 15:00:07;;;;;;;1.93;1.20;;;23.20;54.60;;;;;;6124018;22;1494612;-84
2022/08/31 15:24:25;;;;;;;1.15;1.05;;;21.90;60.30;;;;;;5705561;24;20183;-85
2022/08/31 18:26:01;;;;;;;1.83;1.13;;;18.20;76.90;;;;;;5475675;25;20257;-86
2022/08/31 19:49:12;;;;;;;1.57;1.23;;;17.20;81.90;;;;;;5717349;24;20713;-86
2022/08/31 20:43:05;;;;;;;4.57;1.80;;;16.50;85.40;;;;;;6124973;22;20227;-84
2022/08/31 22:54:54;;;;;;;1.93;1.27;;;14.80;87.70;;;;;;5609730;25;20201;-85
2022/08/31 23:43:57;;;;;;;2.47;1.30;;;13.70;90.40;;;;;;5430697;25;20183;-85
